sensor_id;sensor_type;location;lat;lon;timestamp;pressure;altitude;pressure_sealevel;temperature;humidity
44148;BME280;29810;55.848;37.368;2022-08-04T00:01:02;99539.47;;;21.98;50.81
44148;BME280;29810;55.848;37.368;2022-08-04T00:10:53;99530.53;;;21.88;51.09
44148;BME280;29810;55.848;37.368;2022-08-04T00:14:02;99533.72;;;21.81;50.95
44148;BME280;29810;55.848;37.368;2022-08-04T00:17:05;99541.66;;;21.81;51.19
44148;BME280;29810;55.848;37.368;2022-08-04T00:20:08;99528.13;;;21.73;51.17
44148;BME280;29810;55.848;37.368;2022-08-04T00:23:11;99533.44;;;21.73;51.29
44148;BME280;29810;55.848;37.368;2022-08-04T00:26:15;99516.59;;;21.63;51.34
44148;BME280;29810;55.848;37.368;2022-08-04T00:29:17;99537.56;;;21.77;51.35
44148;BME280;29810;55.848;37.368;2022-08-04T00:32:19;99537.06;;;21.83;51.12
44148;BME280;29810;55.848;37.368;2022-08-04T00:35:22;99532.00;;;21.92;51.02
44148;BME280;29810;55.848;37.368;2022-08-04T00:38:24;99534.63;;;22.03;50.45
44148;BME280;29810;55.848;37.368;2022-08-04T00:45:02;99544.28;;;22.15;50.46
44148;BME280;29810;55.848;37.368;2022-08-04T01:01:03;99547.34;;;21.99;51.36
44148;BME280;29810;55.848;37.368;2022-08-04T01:04:18;99555.91;;;21.92;50.99
44148;BME280;29810;55.848;37.368;2022-08-04T01:17:27;99567.94;;;21.62;52.72
44148;BME280;29810;55.848;37.368;2022-08-04T01:20:41;99560.66;;;21.53;53.01
44148;BME280;29810;55.848;37.368;2022-08-04T01:28:04;99563.66;;;21.48;53.28
44148;BME280;29810;55.848;37.368;2022-08-04T01:31:16;99563.78;;;21.46;53.33
44148;BME280;29810;55.848;37.368;2022-08-04T01:34:22;99568.59;;;21.41;53.49
44148;BME280;29810;55.848;37.368;2022-08-04T01:40:28;99570.41;;;21.41;53.36
44148;BME280;29810;55.848;37.368;2022-08-04T01:43:33;99571.12;;;21.43;53.31
44148;BME280;29810;55.848;37.368;2022-08-04T01:46:35;99565.81;;;21.43;53.04
44148;BME280;29810;55.848;37.368;2022-08-04T01:49:37;99569.09;;;21.46;53.21
44148;BME280;29810;55.848;37.368;2022-08-04T01:52:42;99559.91;;;21.39;53.48
44148;BME280;29810;55.848;37.368;2022-08-04T01:55:46;99581.81;;;21.65;53.26
44148;BME280;29810;55.848;37.368;2022-08-04T01:58:48;99574.47;;;21.80;52.34
44148;BME280;29810;55.848;37.368;2022-08-04T02:01:50;99574.22;;;21.72;52.46
44148;BME280;29810;55.848;37.368;2022-08-04T02:04:51;99568.28;;;21.57;53.12
44148;BME280;29810;55.848;37.368;2022-08-04T02:11:20;99570.62;;;21.38;54.36
44148;BME280;29810;55.848;37.368;2022-08-04T02:14:25;99584.88;;;21.48;53.08
44148;BME280;29810;55.848;37.368;2022-08-04T02:18:03;99569.56;;;21.29;54.27
44148;BME280;29810;55.848;37.368;2022-08-04T02:21:05;99581.13;;;21.39;54.14
44148;BME280;29810;55.848;37.368;2022-08-04T02:24:08;99572.22;;;21.40;53.58
44148;BME280;29810;55.848;37.368;2022-08-04T02:27:14;99565.97;;;21.53;53.28
44148;BME280;29810;55.848;37.368;2022-08-04T02:30:18;99573.75;;;21.90;52.43
44148;BME280;29810;55.848;37.368;2022-08-04T02:33:25;99570.38;;;22.10;51.48
44148;BME280;29810;55.848;37.368;2022-08-04T02:36:39;99574.47;;;22.03;52.25
44148;BME280;29810;55.848;37.368;2022-08-04T02:39:41;99577.13;;;21.80;53.26
44148;BME280;29810;55.848;37.368;2022-08-04T02:42:44;99580.97;;;21.65;53.39
44148;BME280;29810;55.848;37.368;2022-08-04T02:45:48;99582.03;;;21.62;53.82
44148;BME280;29810;55.848;37.368;2022-08-04T02:48:53;99589.87;;;21.64;53.53
44148;BME280;29810;55.848;37.368;2022-08-04T02:51:56;99587.72;;;21.69;53.69
44148;BME280;29810;55.848;37.368;2022-08-04T02:55:00;99586.75;;;21.70;54.01
44148;BME280;29810;55.848;37.368;2022-08-04T02:58:02;99572.28;;;21.63;54.00
44148;BME280;29810;55.848;37.368;2022-08-04T03:01:04;99586.06;;;21.68;53.76
44148;BME280;29810;55.848;37.368;2022-08-04T03:07:28;99596.16;;;21.74;53.83
44148;BME280;29810;55.848;37.368;2022-08-04T03:11:02;99594.63;;;21.83;53.51
44148;BME280;29810;55.848;37.368;2022-08-04T03:14:27;99588.94;;;22.44;52.11
44148;BME280;29810;55.848;37.368;2022-08-04T03:35:40;99580.91;;;27.82;39.58
44148;BME280;29810;55.848;37.368;2022-08-04T03:42:43;99577.59;;;31.45;33.37
44148;BME280;29810;55.848;37.368;2022-08-04T03:59:32;99582.66;;;35.11;26.01
44148;BME280;29810;55.848;37.368;2022-08-04T04:19:28;99593.06;;;37.04;23.84
44148;BME280;29810;55.848;37.368;2022-08-04T04:22:43;99589.56;;;38.10;22.78
44148;BME280;29810;55.848;37.368;2022-08-04T04:26:46;99593.09;;;38.10;22.37
44148;BME280;29810;55.848;37.368;2022-08-04T04:33:02;99599.38;;;38.60;21.94
44148;BME280;29810;55.848;37.368;2022-08-04T04:36:18;99611.22;;;38.17;21.48
44148;BME280;29810;55.848;37.368;2022-08-04T04:43:17;99608.81;;;39.78;20.61
44148;BME280;29810;55.848;37.368;2022-08-04T04:46:41;99611.87;;;39.46;20.21
44148;BME280;29810;55.848;37.368;2022-08-04T04:50:03;99610.81;;;39.58;20.13
44148;BME280;29810;55.848;37.368;2022-08-04T04:53:28;99614.41;;;40.23;20.22
44148;BME280;29810;55.848;37.368;2022-08-04T04:56:47;99613.78;;;39.81;19.73
44148;BME280;29810;55.848;37.368;2022-08-04T05:00:03;99617.09;;;39.59;20.72
44148;BME280;29810;55.848;37.368;2022-08-04T05:03:17;99619.25;;;39.69;20.95
44148;BME280;29810;55.848;37.368;2022-08-04T05:13:33;99623.38;;;39.59;20.33
44148;BME280;29810;55.848;37.368;2022-08-04T05:16:40;99623.84;;;39.92;19.24
44148;BME280;29810;55.848;37.368;2022-08-04T05:19:57;99619.00;;;39.35;19.55
44148;BME280;29810;55.848;37.368;2022-08-04T05:23:29;99618.66;;;39.79;19.54
44148;BME280;29810;55.848;37.368;2022-08-04T05:26:38;99617.44;;;41.31;18.32
44148;BME280;29810;55.848;37.368;2022-08-04T05:29:50;99621.50;;;41.28;17.88
44148;BME280;29810;55.848;37.368;2022-08-04T05:33:00;99621.03;;;40.85;18.24
44148;BME280;29810;55.848;37.368;2022-08-04T05:36:07;99618.72;;;40.94;18.27
44148;BME280;29810;55.848;37.368;2022-08-04T05:39:14;99617.12;;;40.81;17.89
44148;BME280;29810;55.848;37.368;2022-08-04T05:42:18;99619.53;;;41.24;17.59
44148;BME280;29810;55.848;37.368;2022-08-04T05:45:22;99627.97;;;41.39;17.61
44148;BME280;29810;55.848;37.368;2022-08-04T05:48:25;99631.72;;;40.70;17.69
44148;BME280;29810;55.848;37.368;2022-08-04T05:51:28;99623.31;;;40.31;18.05
44148;BME280;29810;55.848;37.368;2022-08-04T05:54:32;99623.56;;;40.58;17.61
44148;BME280;29810;55.848;37.368;2022-08-04T05:57:40;99630.47;;;40.08;17.96
44148;BME280;29810;55.848;37.368;2022-08-04T06:00:43;99638.19;;;40.11;18.04
44148;BME280;29810;55.848;37.368;2022-08-04T06:03:47;99638.22;;;40.40;17.54
44148;BME280;29810;55.848;37.368;2022-08-04T06:06:49;99635.22;;;38.75;18.83
44148;BME280;29810;55.848;37.368;2022-08-04T06:09:52;99642.22;;;38.16;19.47
44148;BME280;29810;55.848;37.368;2022-08-04T06:13:00;99640.13;;;37.23;20.16
44148;BME280;29810;55.848;37.368;2022-08-04T06:16:05;99645.88;;;36.83;21.07
44148;BME280;29810;55.848;37.368;2022-08-04T06:19:10;99641.28;;;36.84;20.88
44148;BME280;29810;55.848;37.368;2022-08-04T06:22:14;99636.88;;;37.15;20.50
44148;BME280;29810;55.848;37.368;2022-08-04T06:25:22;99634.72;;;36.53;20.66
44148;BME280;29810;55.848;37.368;2022-08-04T06:28:26;99628.97;;;36.36;21.12
44148;BME280;29810;55.848;37.368;2022-08-04T06:31:31;99643.47;;;34.89;22.71
44148;BME280;29810;55.848;37.368;2022-08-04T06:34:43;99652.13;;;32.72;25.35
44148;BME280;29810;55.848;37.368;2022-08-04T06:37:46;99650.50;;;30.65;27.36
44148;BME280;29810;55.848;37.368;2022-08-04T06:40:48;99665.37;;;29.72;29.20
44148;BME280;29810;55.848;37.368;2022-08-04T06:43:50;99672.28;;;29.33;29.73
44148;BME280;29810;55.848;37.368;2022-08-04T06:46:53;99665.94;;;28.67;30.70
44148;BME280;29810;55.848;37.368;2022-08-04T06:49:55;99668.88;;;28.55;29.63
44148;BME280;29810;55.848;37.368;2022-08-04T06:52:58;99662.22;;;28.25;29.33
44148;BME280;29810;55.848;37.368;2022-08-04T06:56:00;99667.28;;;28.02;29.44
44148;BME280;29810;55.848;37.368;2022-08-04T06:59:03;99670.38;;;27.89;30.26
44148;BME280;29810;55.848;37.368;2022-08-04T07:02:05;99671.38;;;27.88;30.64
44148;BME280;29810;55.848;37.368;2022-08-04T07:05:09;99661.69;;;27.95;31.11
44148;BME280;29810;55.848;37.368;2022-08-04T07:08:11;99667.56;;;27.72;31.44
44148;BME280;29810;55.848;37.368;2022-08-04T07:11:13;99673.19;;;27.25;32.40
44148;BME280;29810;55.848;37.368;2022-08-04T07:14:16;99663.25;;;27.17;32.52
44148;BME280;29810;55.848;37.368;2022-08-04T07:17:20;99663.03;;;27.10;32.03
44148;BME280;29810;55.848;37.368;2022-08-04T07:20:21;99651.78;;;27.07;32.06
44148;BME280;29810;55.848;37.368;2022-08-04T07:23:25;99652.34;;;27.10;31.84
44148;BME280;29810;55.848;37.368;2022-08-04T07:26:27;99655.12;;;27.27;31.92
44148;BME280;29810;55.848;37.368;2022-08-04T07:29:29;99664.19;;;27.44;31.88
44148;BME280;29810;55.848;37.368;2022-08-04T07:32:31;99652.47;;;27.45;31.75
44148;BME280;29810;55.848;37.368;2022-08-04T07:35:33;99647.81;;;27.47;31.55
44148;BME280;29810;55.848;37.368;2022-08-04T07:38:35;99666.00;;;27.25;31.04
44148;BME280;29810;55.848;37.368;2022-08-04T07:41:38;99645.50;;;26.98;31.40
44148;BME280;29810;55.848;37.368;2022-08-04T07:44:44;99654.62;;;27.05;31.73
44148;BME280;29810;55.848;37.368;2022-08-04T07:47:46;99648.97;;;27.08;30.50
44148;BME280;29810;55.848;37.368;2022-08-04T07:50:49;99648.50;;;27.13;30.62
44148;BME280;29810;55.848;37.368;2022-08-04T07:53:50;99632.06;;;27.08;30.64
44148;BME280;29810;55.848;37.368;2022-08-04T07:56:53;99648.13;;;27.08;31.09
44148;BME280;29810;55.848;37.368;2022-08-04T07:59:55;99636.50;;;27.17;31.21
44148;BME280;29810;55.848;37.368;2022-08-04T08:02:56;99645.91;;;27.39;30.85
44148;BME280;29810;55.848;37.368;2022-08-04T08:05:58;99647.72;;;27.57;30.90
44148;BME280;29810;55.848;37.368;2022-08-04T08:09:06;99645.09;;;27.65;31.27
44148;BME280;29810;55.848;37.368;2022-08-04T08:12:08;99653.84;;;27.49;31.88
44148;BME280;29810;55.848;37.368;2022-08-04T08:15:10;99647.81;;;27.47;31.99
44148;BME280;29810;55.848;37.368;2022-08-04T08:18:15;99648.34;;;27.51;31.48
44148;BME280;29810;55.848;37.368;2022-08-04T08:21:19;99648.88;;;27.81;31.08
44148;BME280;29810;55.848;37.368;2022-08-04T08:24:21;99646.47;;;27.69;30.90
44148;BME280;29810;55.848;37.368;2022-08-04T08:27:22;99641.78;;;27.71;30.94
44148;BME280;29810;55.848;37.368;2022-08-04T08:30:24;99647.62;;;27.93;30.76
44148;BME280;29810;55.848;37.368;2022-08-04T08:33:26;99648.06;;;28.06;30.36
44148;BME280;29810;55.848;37.368;2022-08-04T08:36:34;99641.59;;;27.99;30.43
44148;BME280;29810;55.848;37.368;2022-08-04T08:39:37;99647.41;;;27.86;29.66
44148;BME280;29810;55.848;37.368;2022-08-04T08:43:04;99640.78;;;27.72;29.80
44148;BME280;29810;55.848;37.368;2022-08-04T08:57:22;99642.53;;;28.42;29.12
44148;BME280;29810;55.848;37.368;2022-08-04T09:04:02;99637.94;;;28.00;29.30
44148;BME280;29810;55.848;37.368;2022-08-04T09:10:25;99643.87;;;27.86;29.65
44148;BME280;29810;55.848;37.368;2022-08-04T09:16:48;99648.97;;;27.97;29.81
44148;BME280;29810;55.848;37.368;2022-08-04T09:20:02;99648.94;;;28.15;29.73
44148;BME280;29810;55.848;37.368;2022-08-04T09:26:19;99651.37;;;28.35;29.52
44148;BME280;29810;55.848;37.368;2022-08-04T09:42:37;99633.19;;;28.63;29.93
44148;BME280;29810;55.848;37.368;2022-08-04T09:46:04;99623.53;;;28.87;29.54
44148;BME280;29810;55.848;37.368;2022-08-04T09:56:13;99615.88;;;29.00;30.12
44148;BME280;29810;55.848;37.368;2022-08-04T09:59:24;99622.22;;;29.07;29.72
44148;BME280;29810;55.848;37.368;2022-08-04T10:02:31;99622.91;;;29.01;29.39
44148;BME280;29810;55.848;37.368;2022-08-04T10:09:00;99619.25;;;29.27;29.01
44148;BME280;29810;55.848;37.368;2022-08-04T10:18:39;99628.31;;;29.43;28.71
44148;BME280;29810;55.848;37.368;2022-08-04T10:22:07;99618.56;;;29.50;28.45
44148;BME280;29810;55.848;37.368;2022-08-04T10:28:18;99622.06;;;29.75;27.84
44148;BME280;29810;55.848;37.368;2022-08-04T10:31:32;99615.50;;;29.78;27.69
44148;BME280;29810;55.848;37.368;2022-08-04T10:38:24;99616.69;;;29.92;27.84
44148;BME280;29810;55.848;37.368;2022-08-04T10:41:32;99618.53;;;29.74;28.37
44148;BME280;29810;55.848;37.368;2022-08-04T10:47:53;99611.81;;;29.79;28.01
44148;BME280;29810;55.848;37.368;2022-08-04T10:51:17;99612.78;;;29.86;27.96
44148;BME280;29810;55.848;37.368;2022-08-04T10:54:28;99607.56;;;30.01;28.08
44148;BME280;29810;55.848;37.368;2022-08-04T10:57:38;99617.03;;;29.72;28.27
44148;BME280;29810;55.848;37.368;2022-08-04T11:00:42;99616.84;;;29.73;28.56
44148;BME280;29810;55.848;37.368;2022-08-04T11:03:55;99618.03;;;29.71;28.54
44148;BME280;29810;55.848;37.368;2022-08-04T11:06:59;99614.97;;;29.82;28.30
44148;BME280;29810;55.848;37.368;2022-08-04T11:10:01;99619.53;;;29.73;28.01
44148;BME280;29810;55.848;37.368;2022-08-04T11:13:09;99604.97;;;29.43;28.26
44148;BME280;29810;55.848;37.368;2022-08-04T11:16:25;99621.59;;;29.55;27.97
44148;BME280;29810;55.848;37.368;2022-08-04T11:22:38;99613.31;;;29.89;27.42
44148;BME280;29810;55.848;37.368;2022-08-04T11:29:19;99614.91;;;30.07;27.75
44148;BME280;29810;55.848;37.368;2022-08-04T11:32:41;99608.56;;;30.00;27.83
44148;BME280;29810;55.848;37.368;2022-08-04T11:35:51;99614.44;;;30.03;28.15
44148;BME280;29810;55.848;37.368;2022-08-04T11:39:06;99614.13;;;29.98;28.30
44148;BME280;29810;55.848;37.368;2022-08-04T11:42:25;99609.81;;;29.72;28.78
44148;BME280;29810;55.848;37.368;2022-08-04T11:45:30;99604.16;;;29.34;29.62
44148;BME280;29810;55.848;37.368;2022-08-04T11:48:46;99610.81;;;29.22;30.00
44148;BME280;29810;55.848;37.368;2022-08-04T11:51:50;99607.16;;;29.48;30.18
44148;BME280;29810;55.848;37.368;2022-08-04T11:54:53;99600.28;;;29.29;30.35
44148;BME280;29810;55.848;37.368;2022-08-04T11:57:56;99599.44;;;29.45;30.16
44148;BME280;29810;55.848;37.368;2022-08-04T12:01:25;99595.72;;;29.46;30.98
44148;BME280;29810;55.848;37.368;2022-08-04T12:04:54;99601.41;;;29.67;30.30
44148;BME280;29810;55.848;37.368;2022-08-04T12:18:23;99586.94;;;29.77;30.44
44148;BME280;29810;55.848;37.368;2022-08-04T12:21:32;99589.00;;;29.74;30.66
44148;BME280;29810;55.848;37.368;2022-08-04T12:24:40;99582.25;;;29.87;30.36
44148;BME280;29810;55.848;37.368;2022-08-04T12:28:23;99583.38;;;30.01;29.97
44148;BME280;29810;55.848;37.368;2022-08-04T12:31:35;99581.47;;;30.18;29.91
44148;BME280;29810;55.848;37.368;2022-08-04T12:38:13;99570.75;;;30.49;29.78
44148;BME280;29810;55.848;37.368;2022-08-04T12:41:22;99574.69;;;30.62;29.49
44148;BME280;29810;55.848;37.368;2022-08-04T12:44:30;99569.50;;;30.60;29.53
44148;BME280;29810;55.848;37.368;2022-08-04T12:47:34;99565.84;;;30.45;29.64
44148;BME280;29810;55.848;37.368;2022-08-04T12:50:37;99563.84;;;30.38;29.77
44148;BME280;29810;55.848;37.368;2022-08-04T12:53:41;99558.03;;;30.66;29.54
44148;BME280;29810;55.848;37.368;2022-08-04T12:56:44;99560.28;;;30.54;29.31
44148;BME280;29810;55.848;37.368;2022-08-04T12:59:46;99563.69;;;30.48;29.70
44148;BME280;29810;55.848;37.368;2022-08-04T13:02:48;99551.41;;;30.46;29.70
44148;BME280;29810;55.848;37.368;2022-08-04T13:05:53;99560.72;;;30.66;29.56
44148;BME280;29810;55.848;37.368;2022-08-04T13:09:06;99563.34;;;30.75;29.62
44148;BME280;29810;55.848;37.368;2022-08-04T13:12:13;99559.34;;;30.70;29.74
44148;BME280;29810;55.848;37.368;2022-08-04T13:15:17;99561.19;;;30.47;29.84
44148;BME280;29810;55.848;37.368;2022-08-04T13:18:20;99556.34;;;30.34;29.64
44148;BME280;29810;55.848;37.368;2022-08-04T13:21:24;99556.03;;;30.29;29.65
44148;BME280;29810;55.848;37.368;2022-08-04T13:24:28;99562.97;;;30.23;29.90
44148;BME280;29810;55.848;37.368;2022-08-04T13:27:31;99560.66;;;30.12;30.53
44148;BME280;29810;55.848;37.368;2022-08-04T13:30:33;99561.47;;;29.64;31.74
44148;BME280;29810;55.848;37.368;2022-08-04T13:33:37;99560.16;;;29.52;31.15
44148;BME280;29810;55.848;37.368;2022-08-04T13:36:39;99565.22;;;29.30;31.23
44148;BME280;29810;55.848;37.368;2022-08-04T13:39:44;99554.00;;;29.27;31.54
44148;BME280;29810;55.848;37.368;2022-08-04T13:42:47;99555.31;;;29.47;30.87
44148;BME280;29810;55.848;37.368;2022-08-04T13:45:50;99550.03;;;29.70;30.85
44148;BME280;29810;55.848;37.368;2022-08-04T13:49:01;99537.25;;;29.89;30.82
44148;BME280;29810;55.848;37.368;2022-08-04T13:52:05;99543.53;;;30.04;30.67
44148;BME280;29810;55.848;37.368;2022-08-04T13:55:16;99537.28;;;30.12;30.79
44148;BME280;29810;55.848;37.368;2022-08-04T13:58:22;99537.84;;;29.99;30.92
44148;BME280;29810;55.848;37.368;2022-08-04T14:01:26;99531.03;;;29.88;30.88
44148;BME280;29810;55.848;37.368;2022-08-04T14:04:30;99534.22;;;29.84;31.23
44148;BME280;29810;55.848;37.368;2022-08-04T14:07:41;99534.91;;;29.78;31.23
44148;BME280;29810;55.848;37.368;2022-08-04T14:10:55;99527.19;;;29.74;31.77
44148;BME280;29810;55.848;37.368;2022-08-04T14:14:00;99531.19;;;29.87;31.78
44148;BME280;29810;55.848;37.368;2022-08-04T14:20:03;99524.03;;;30.11;30.82
44148;BME280;29810;55.848;37.368;2022-08-04T14:23:05;99524.72;;;30.04;30.68
44148;BME280;29810;55.848;37.368;2022-08-04T14:26:25;99520.03;;;30.06;30.94
44148;BME280;29810;55.848;37.368;2022-08-04T14:29:36;99516.28;;;30.16;31.33
44148;BME280;29810;55.848;37.368;2022-08-04T14:33:06;99520.69;;;30.09;30.81
44148;BME280;29810;55.848;37.368;2022-08-04T14:36:09;99523.22;;;30.10;30.91
44148;BME280;29810;55.848;37.368;2022-08-04T14:39:11;99516.97;;;30.10;31.12
44148;BME280;29810;55.848;37.368;2022-08-04T14:42:13;99522.03;;;30.13;30.82
44148;BME280;29810;55.848;37.368;2022-08-04T14:45:15;99516.84;;;30.03;30.89
44148;BME280;29810;55.848;37.368;2022-08-04T14:48:17;99520.78;;;29.92;31.16
44148;BME280;29810;55.848;37.368;2022-08-04T14:51:18;99525.91;;;30.02;31.08
44148;BME280;29810;55.848;37.368;2022-08-04T14:54:29;99519.03;;;29.99;31.17
44148;BME280;29810;55.848;37.368;2022-08-04T14:57:35;99526.41;;;30.05;31.42
44148;BME280;29810;55.848;37.368;2022-08-04T15:00:36;99523.09;;;29.95;31.67
44148;BME280;29810;55.848;37.368;2022-08-04T15:03:43;99531.06;;;30.43;30.90
44148;BME280;29810;55.848;37.368;2022-08-04T15:06:46;99533.69;;;30.28;31.26
44148;BME280;29810;55.848;37.368;2022-08-04T15:09:47;99532.78;;;30.13;31.09
44148;BME280;29810;55.848;37.368;2022-08-04T15:12:49;99522.03;;;30.04;31.60
44148;BME280;29810;55.848;37.368;2022-08-04T15:15:51;99529.16;;;29.97;31.55
44148;BME280;29810;55.848;37.368;2022-08-04T15:18:53;99525.66;;;29.88;31.85
44148;BME280;29810;55.848;37.368;2022-08-04T15:21:54;99526.78;;;30.02;32.06
44148;BME280;29810;55.848;37.368;2022-08-04T15:24:56;99519.63;;;30.18;31.78
44148;BME280;29810;55.848;37.368;2022-08-04T15:27:58;99523.22;;;30.10;31.09
44148;BME280;29810;55.848;37.368;2022-08-04T15:31:03;99523.09;;;29.95;31.75
44148;BME280;29810;55.848;37.368;2022-08-04T15:34:07;99524.97;;;29.78;31.49
44148;BME280;29810;55.848;37.368;2022-08-04T15:37:09;99541.63;;;29.65;31.44
44148;BME280;29810;55.848;37.368;2022-08-04T15:47:19;99528.72;;;29.69;30.49
44148;BME280;29810;55.848;37.368;2022-08-04T15:50:21;99534.94;;;29.61;30.56
44148;BME280;29810;55.848;37.368;2022-08-04T15:53:27;99530.59;;;29.60;30.68
44148;BME280;29810;55.848;37.368;2022-08-04T16:02:58;99531.81;;;29.16;31.61
44148;BME280;29810;55.848;37.368;2022-08-04T16:09:07;99538.69;;;28.78;32.31
44148;BME280;29810;55.848;37.368;2022-08-04T16:12:10;99536.03;;;28.69;32.36
44148;BME280;29810;55.848;37.368;2022-08-04T16:18:51;99546.03;;;28.59;32.92
44148;BME280;29810;55.848;37.368;2022-08-04T16:21:57;99543.00;;;28.54;33.35
44148;BME280;29810;55.848;37.368;2022-08-04T16:25:05;99531.09;;;28.40;33.62
44148;BME280;29810;55.848;37.368;2022-08-04T16:28:06;99544.00;;;28.53;33.86
44148;BME280;29810;55.848;37.368;2022-08-04T16:31:10;99546.03;;;28.59;33.96
44148;BME280;29810;55.848;37.368;2022-08-04T16:34:12;99556.09;;;28.57;34.06
44148;BME280;29810;55.848;37.368;2022-08-04T16:37:19;99550.69;;;28.49;35.15
44148;BME280;29810;55.848;37.368;2022-08-04T16:40:24;99563.56;;;28.37;35.94
44148;BME280;29810;55.848;37.368;2022-08-04T16:43:31;99563.41;;;28.30;36.63
44148;BME280;29810;55.848;37.368;2022-08-04T16:46:39;99562.03;;;28.26;36.84
44148;BME280;29810;55.848;37.368;2022-08-04T16:49:43;99553.47;;;28.14;37.55
44148;BME280;29810;55.848;37.368;2022-08-04T16:52:52;99558.41;;;28.01;37.95
44148;BME280;29810;55.848;37.368;2022-08-04T16:55:55;99571.56;;;27.86;38.74
44148;BME280;29810;55.848;37.368;2022-08-04T16:59:07;99564.66;;;27.75;38.74
44148;BME280;29810;55.848;37.368;2022-08-04T17:02:10;99565.97;;;27.71;39.21
44148;BME280;29810;55.848;37.368;2022-08-04T17:05:23;99566.06;;;27.61;39.43
44148;BME280;29810;55.848;37.368;2022-08-04T17:08:27;99571.91;;;27.56;39.88
44148;BME280;29810;55.848;37.368;2022-08-04T17:11:31;99576.00;;;27.42;40.07
44148;BME280;29810;55.848;37.368;2022-08-04T17:14:33;99570.56;;;27.34;40.29
44148;BME280;29810;55.848;37.368;2022-08-04T17:17:35;99581.28;;;27.34;40.26
44148;BME280;29810;55.848;37.368;2022-08-04T17:20:39;99586.53;;;27.26;40.49
44148;BME280;29810;55.848;37.368;2022-08-04T17:23:43;99590.16;;;27.17;40.96
44148;BME280;29810;55.848;37.368;2022-08-04T17:26:46;99589.41;;;27.06;41.25
44148;BME280;29810;55.848;37.368;2022-08-04T17:29:48;99589.66;;;26.95;41.24
44148;BME280;29810;55.848;37.368;2022-08-04T17:32:51;99598.59;;;26.86;41.55
44148;BME280;29810;55.848;37.368;2022-08-04T17:35:57;99596.13;;;26.74;41.67
44148;BME280;29810;55.848;37.368;2022-08-04T17:39:01;99596.72;;;26.68;42.13
44148;BME280;29810;55.848;37.368;2022-08-04T17:42:03;99600.13;;;26.60;42.23
44148;BME280;29810;55.848;37.368;2022-08-04T17:45:07;99596.41;;;26.53;42.39
44148;BME280;29810;55.848;37.368;2022-08-04T17:48:17;99601.78;;;26.43;42.73
44148;BME280;29810;55.848;37.368;2022-08-04T17:51:19;99605.09;;;26.37;43.02
44148;BME280;29810;55.848;37.368;2022-08-04T17:57:28;99599.22;;;26.24;43.38
44148;BME280;29810;55.848;37.368;2022-08-04T18:00:34;99598.00;;;26.18;43.25
44148;BME280;29810;55.848;37.368;2022-08-04T18:03:35;99592.41;;;26.11;43.58
44148;BME280;29810;55.848;37.368;2022-08-04T18:06:37;99586.34;;;26.09;43.46
44148;BME280;29810;55.848;37.368;2022-08-04T18:13:05;99602.25;;;26.01;44.05
44148;BME280;29810;55.848;37.368;2022-08-04T18:16:07;99591.50;;;25.83;45.29
44148;BME280;29810;55.848;37.368;2022-08-04T18:19:10;99603.31;;;25.81;45.33
44148;BME280;29810;55.848;37.368;2022-08-04T18:22:12;99612.44;;;25.78;45.06
44148;BME280;29810;55.848;37.368;2022-08-04T18:25:18;99608.53;;;25.72;45.44
44148;BME280;29810;55.848;37.368;2022-08-04T18:28:23;99611.38;;;25.71;45.30
44148;BME280;29810;55.848;37.368;2022-08-04T18:31:25;99608.44;;;25.64;45.26
44148;BME280;29810;55.848;37.368;2022-08-04T18:34:26;99608.59;;;25.53;45.49
44148;BME280;29810;55.848;37.368;2022-08-04T18:37:31;99607.50;;;25.36;44.66
44148;BME280;29810;55.848;37.368;2022-08-04T18:40:33;99615.31;;;25.27;44.97
44148;BME280;29810;55.848;37.368;2022-08-04T18:43:34;99609.16;;;25.17;45.07
44148;BME280;29810;55.848;37.368;2022-08-04T18:46:36;99611.81;;;25.07;45.36
44148;BME280;29810;55.848;37.368;2022-08-04T18:49:37;99606.94;;;25.03;45.33
44148;BME280;29810;55.848;37.368;2022-08-04T18:52:39;99610.16;;;24.96;45.51
44148;BME280;29810;55.848;37.368;2022-08-04T18:55:40;99617.56;;;24.93;45.60
44148;BME280;29810;55.848;37.368;2022-08-04T18:58:42;99617.00;;;24.89;45.66
44148;BME280;29810;55.848;37.368;2022-08-04T19:01:44;99617.28;;;24.86;45.50
44148;BME280;29810;55.848;37.368;2022-08-04T19:04:46;99620.78;;;24.87;45.54
44148;BME280;29810;55.848;37.368;2022-08-04T19:07:49;99622.78;;;24.85;45.43
44148;BME280;29810;55.848;37.368;2022-08-04T19:10:50;99619.97;;;24.86;45.59
44148;BME280;29810;55.848;37.368;2022-08-04T19:13:52;99625.59;;;24.83;45.72
44148;BME280;29810;55.848;37.368;2022-08-04T19:16:54;99619.37;;;24.73;45.95
44148;BME280;29810;55.848;37.368;2022-08-04T19:19:55;99627.94;;;24.67;45.98
44148;BME280;29810;55.848;37.368;2022-08-04T19:22:57;99628.28;;;24.62;46.01
44148;BME280;29810;55.848;37.368;2022-08-04T19:25:59;99622.53;;;24.57;46.29
44148;BME280;29810;55.848;37.368;2022-08-04T19:29:01;99622.25;;;24.50;46.67
44148;BME280;29810;55.848;37.368;2022-08-04T19:32:03;99634.97;;;24.37;47.26
44148;BME280;29810;55.848;37.368;2022-08-04T19:35:04;99628.37;;;24.31;47.31
44148;BME280;29810;55.848;37.368;2022-08-04T19:38:09;99630.59;;;24.26;47.46
44148;BME280;29810;55.848;37.368;2022-08-04T19:41:11;99632.28;;;24.27;47.66
44148;BME280;29810;55.848;37.368;2022-08-04T19:44:13;99621.22;;;24.31;47.48
44148;BME280;29810;55.848;37.368;2022-08-04T19:47:15;99631.88;;;24.31;47.60
44148;BME280;29810;55.848;37.368;2022-08-04T19:50:17;99629.72;;;24.25;47.72
44148;BME280;29810;55.848;37.368;2022-08-04T19:53:19;99636.50;;;24.29;48.03
44148;BME280;29810;55.848;37.368;2022-08-04T19:56:20;99628.63;;;24.28;47.92
44148;BME280;29810;55.848;37.368;2022-08-04T19:59:22;99632.00;;;24.30;47.96
44148;BME280;29810;55.848;37.368;2022-08-04T20:02:24;99632.59;;;24.34;47.91